Airfield :
LOGIN :

Register | Disclaimer

   EN    FR    IT 

 










Legend :    VFR   Marginal VFR   IFR   Intensive IFR   Very Intensive IFR
Visi :
Ceiling :
>= 8 km
>= 3000ft
5 to 8 km
1000 to 3000 ft
1500m to 5 km
500 to 1000 ft
800 to 1500m
200 to 500 ft
< 800m
< 200 ft
Symbols :   Thunderstorms  Fog  Heavy snow  Heavy precipitations  Wind > 20 kt
SIGMETs :     Misc.  Thunderstorms  Icing  Turbulence  Mountain Waves  Volcanic Ashes







- Airport Elevation : 755 ft
- IATA code : RWN


UKLR - Rivne

CURRENT METAR :
  • 170400Z 34004MPS CAVOK 21/19 Q1016 NOSIG

EXPIRED METARs :
  • 170330Z 33003MPS CAVOK 20/19 Q1016 NOSIG
  • 170300Z 31003MPS 8000 NSC 18/18 Q1016 NOSIG

TAF TAF UKLR
Valid from the 17 at 04:00 until the 17 at 12:00 UTC


170335Z 1704/1712 33005G10MPS 9999 BKN020 SCT023CB TX27/1712Z TN21/1704Z
PROB40
TEMPO 1708/1712 VRB08G14MPS 2100 -TSRAGR BKN007 BKN013CB
No reported NOTAMs for that airfield.
1 SIGMET reported for the L'VIV FIR (UKLV) :
 
Embedded thunderstorms and hail
UKLV SIGMET 1 VALID 170430/170800 UKLW
UKLV LVIV FIR/UIR EMBD TSGR FCST ENTIRE FIR/UIR TOP FL380 MOV NE 20KMH NC=



MET'MAP, your aeronautical weather chart ! - Copyright ORBIFLY December 2007 - Disclaimer

ORBIFLY MET'MAP TEAM :

Programming & Development : Alexandra Zaïnal
Concept & Development : Baudouin d'Aumeries
Co-Development & Prog : Marc-Olivier Méhu
Technical & hardware support : Manuel Goepfert

Contact : metmap@orbifly.com




SOURCES & CREDITS :

   NOAA